sensor_id;sensor_type;location;lat;lon;timestamp;temperature;humidity
79760;DHT22;70512;42.122;24.732;2023-06-14T00:01:37;21.30;72.70
79760;DHT22;70512;42.122;24.732;2023-06-14T00:04:05;21.30;72.60
79760;DHT22;70512;42.122;24.732;2023-06-14T00:06:34;21.30;73.00
79760;DHT22;70512;42.122;24.732;2023-06-14T00:09:01;21.20;73.30
79760;DHT22;70512;42.122;24.732;2023-06-14T00:11:29;21.30;73.30
79760;DHT22;70512;42.122;24.732;2023-06-14T00:13:57;21.30;73.00
79760;DHT22;70512;42.122;24.732;2023-06-14T00:16:30;21.40;72.80
79760;DHT22;70512;42.122;24.732;2023-06-14T00:18:54;21.50;72.30
79760;DHT22;70512;42.122;24.732;2023-06-14T00:21:21;21.60;72.20
79760;DHT22;70512;42.122;24.732;2023-06-14T00:23:49;21.60;72.30
79760;DHT22;70512;42.122;24.732;2023-06-14T00:26:17;21.40;72.80
79760;DHT22;70512;42.122;24.732;2023-06-14T00:28:44;21.30;73.40
79760;DHT22;70512;42.122;24.732;2023-06-14T00:31:17;21.10;74.10
79760;DHT22;70512;42.122;24.732;2023-06-14T00:33:42;21.00;74.50
79760;DHT22;70512;42.122;24.732;2023-06-14T00:36:10;21.00;75.70
79760;DHT22;70512;42.122;24.732;2023-06-14T00:38:39;20.90;75.50
79760;DHT22;70512;42.122;24.732;2023-06-14T00:41:07;20.90;75.70
79760;DHT22;70512;42.122;24.732;2023-06-14T00:43:35;20.90;76.10
79760;DHT22;70512;42.122;24.732;2023-06-14T00:46:02;20.90;75.80
79760;DHT22;70512;42.122;24.732;2023-06-14T00:48:30;20.90;76.10
79760;DHT22;70512;42.122;24.732;2023-06-14T00:50:59;20.80;76.50
79760;DHT22;70512;42.122;24.732;2023-06-14T00:53:30;20.90;76.70
79760;DHT22;70512;42.122;24.732;2023-06-14T00:55:59;20.80;76.90
79760;DHT22;70512;42.122;24.732;2023-06-14T00:58:27;20.80;77.10
79760;DHT22;70512;42.122;24.732;2023-06-14T01:00:55;20.80;77.90
79760;DHT22;70512;42.122;24.732;2023-06-14T01:03:24;20.80;77.20
79760;DHT22;70512;42.122;24.732;2023-06-14T01:05:56;20.90;76.80
79760;DHT22;70512;42.122;24.732;2023-06-14T01:08:31;20.90;76.60
79760;DHT22;70512;42.122;24.732;2023-06-14T01:11:05;21.00;76.60
79760;DHT22;70512;42.122;24.732;2023-06-14T01:13:36;20.90;76.70
79760;DHT22;70512;42.122;24.732;2023-06-14T01:16:08;20.90;76.60
79760;DHT22;70512;42.122;24.732;2023-06-14T01:18:36;20.90;76.90
79760;DHT22;70512;42.122;24.732;2023-06-14T01:21:03;20.80;77.20
79760;DHT22;70512;42.122;24.732;2023-06-14T01:23:32;20.80;77.10
79760;DHT22;70512;42.122;24.732;2023-06-14T01:26:01;20.80;77.10
79760;DHT22;70512;42.122;24.732;2023-06-14T01:28:29;20.90;77.10
79760;DHT22;70512;42.122;24.732;2023-06-14T01:31:02;20.80;77.50
79760;DHT22;70512;42.122;24.732;2023-06-14T01:33:32;20.70;77.90
79760;DHT22;70512;42.122;24.732;2023-06-14T01:36:00;20.70;77.90
79760;DHT22;70512;42.122;24.732;2023-06-14T01:38:30;20.70;77.80
79760;DHT22;70512;42.122;24.732;2023-06-14T01:40:59;20.70;77.80
79760;DHT22;70512;42.122;24.732;2023-06-14T01:43:30;20.80;77.80
79760;DHT22;70512;42.122;24.732;2023-06-14T01:45:58;20.70;77.90
79760;DHT22;70512;42.122;24.732;2023-06-14T01:48:27;20.60;78.30
79760;DHT22;70512;42.122;24.732;2023-06-14T01:50:54;20.70;78.00
79760;DHT22;70512;42.122;24.732;2023-06-14T01:53:22;20.70;77.70
79760;DHT22;70512;42.122;24.732;2023-06-14T01:55:49;20.80;77.60
79760;DHT22;70512;42.122;24.732;2023-06-14T01:58:19;20.80;77.20
79760;DHT22;70512;42.122;24.732;2023-06-14T02:00:47;20.80;76.90
79760;DHT22;70512;42.122;24.732;2023-06-14T02:03:15;20.80;77.50
79760;DHT22;70512;42.122;24.732;2023-06-14T02:05:43;20.70;77.80
79760;DHT22;70512;42.122;24.732;2023-06-14T02:08:11;20.60;78.10
79760;DHT22;70512;42.122;24.732;2023-06-14T02:10:38;20.50;78.40
79760;DHT22;70512;42.122;24.732;2023-06-14T02:13:06;20.50;78.80
79760;DHT22;70512;42.122;24.732;2023-06-14T02:15:33;20.50;79.00
79760;DHT22;70512;42.122;24.732;2023-06-14T02:18:02;20.50;78.80
79760;DHT22;70512;42.122;24.732;2023-06-14T02:20:30;20.50;78.60
79760;DHT22;70512;42.122;24.732;2023-06-14T02:22:58;20.50;78.70
79760;DHT22;70512;42.122;24.732;2023-06-14T02:25:26;20.50;78.60
79760;DHT22;70512;42.122;24.732;2023-06-14T02:27:55;20.50;78.50
79760;DHT22;70512;42.122;24.732;2023-06-14T02:30:23;20.60;78.20
79760;DHT22;70512;42.122;24.732;2023-06-14T02:32:50;20.50;78.10
79760;DHT22;70512;42.122;24.732;2023-06-14T02:35:19;20.50;78.10
79760;DHT22;70512;42.122;24.732;2023-06-14T02:37:48;20.50;78.50
79760;DHT22;70512;42.122;24.732;2023-06-14T02:40:18;20.40;78.60
79760;DHT22;70512;42.122;24.732;2023-06-14T02:42:45;20.40;78.90
79760;DHT22;70512;42.122;24.732;2023-06-14T02:45:13;20.40;79.00
79760;DHT22;70512;42.122;24.732;2023-06-14T02:47:41;20.30;79.10
79760;DHT22;70512;42.122;24.732;2023-06-14T02:50:09;20.30;78.90
79760;DHT22;70512;42.122;24.732;2023-06-14T02:52:37;20.30;78.80
79760;DHT22;70512;42.122;24.732;2023-06-14T02:55:05;20.30;79.00
79760;DHT22;70512;42.122;24.732;2023-06-14T02:57:32;20.20;79.10
79760;DHT22;70512;42.122;24.732;2023-06-14T03:00:00;20.20;79.10
79760;DHT22;70512;42.122;24.732;2023-06-14T03:02:27;20.20;79.30
79760;DHT22;70512;42.122;24.732;2023-06-14T03:04:55;20.10;79.10
79760;DHT22;70512;42.122;24.732;2023-06-14T03:07:24;20.00;79.50
79760;DHT22;70512;42.122;24.732;2023-06-14T03:09:53;20.00;79.50
79760;DHT22;70512;42.122;24.732;2023-06-14T03:12:21;20.00;79.60
79760;DHT22;70512;42.122;24.732;2023-06-14T03:14:50;20.00;79.40
79760;DHT22;70512;42.122;24.732;2023-06-14T03:17:18;20.00;79.60
79760;DHT22;70512;42.122;24.732;2023-06-14T03:19:46;20.00;79.60
79760;DHT22;70512;42.122;24.732;2023-06-14T03:22:13;20.00;79.30
79760;DHT22;70512;42.122;24.732;2023-06-14T03:24:41;19.90;79.00
79760;DHT22;70512;42.122;24.732;2023-06-14T03:27:10;19.90;79.10
79760;DHT22;70512;42.122;24.732;2023-06-14T03:29:39;19.90;79.00
79760;DHT22;70512;42.122;24.732;2023-06-14T03:32:07;20.00;78.90
79760;DHT22;70512;42.122;24.732;2023-06-14T03:34:35;20.10;78.30
79760;DHT22;70512;42.122;24.732;2023-06-14T03:37:04;20.20;77.70
79760;DHT22;70512;42.122;24.732;2023-06-14T03:39:32;20.30;77.60
79760;DHT22;70512;42.122;24.732;2023-06-14T03:42:00;20.40;77.20
79760;DHT22;70512;42.122;24.732;2023-06-14T03:44:27;20.40;77.10
79760;DHT22;70512;42.122;24.732;2023-06-14T03:46:55;20.50;76.60
79760;DHT22;70512;42.122;24.732;2023-06-14T03:49:22;20.60;75.80
79760;DHT22;70512;42.122;24.732;2023-06-14T03:51:50;20.60;75.70
79760;DHT22;70512;42.122;24.732;2023-06-14T03:54:18;20.60;75.70
79760;DHT22;70512;42.122;24.732;2023-06-14T03:56:48;20.60;75.80
79760;DHT22;70512;42.122;24.732;2023-06-14T03:59:15;20.60;75.70
79760;DHT22;70512;42.122;24.732;2023-06-14T04:01:43;20.60;75.70
79760;DHT22;70512;42.122;24.732;2023-06-14T04:04:11;20.70;75.60
79760;DHT22;70512;42.122;24.732;2023-06-14T04:06:39;20.90;75.20
79760;DHT22;70512;42.122;24.732;2023-06-14T04:09:07;21.00;75.30
79760;DHT22;70512;42.122;24.732;2023-06-14T04:11:35;21.00;75.10
79760;DHT22;70512;42.122;24.732;2023-06-14T04:14:03;21.10;75.00
79760;DHT22;70512;42.122;24.732;2023-06-14T04:16:30;21.10;75.00
79760;DHT22;70512;42.122;24.732;2023-06-14T04:18:58;21.10;74.90
79760;DHT22;70512;42.122;24.732;2023-06-14T04:21:26;21.10;74.80
79760;DHT22;70512;42.122;24.732;2023-06-14T04:23:55;21.10;74.80
79760;DHT22;70512;42.122;24.732;2023-06-14T04:26:23;21.10;74.60
79760;DHT22;70512;42.122;24.732;2023-06-14T04:28:52;21.10;74.50
79760;DHT22;70512;42.122;24.732;2023-06-14T04:31:21;21.10;74.20
79760;DHT22;70512;42.122;24.732;2023-06-14T04:33:51;21.10;74.20
79760;DHT22;70512;42.122;24.732;2023-06-14T04:36:20;21.20;73.40
79760;DHT22;70512;42.122;24.732;2023-06-14T04:38:47;21.20;73.60
79760;DHT22;70512;42.122;24.732;2023-06-14T04:41:15;21.30;73.40
79760;DHT22;70512;42.122;24.732;2023-06-14T04:43:44;21.40;73.10
79760;DHT22;70512;42.122;24.732;2023-06-14T04:46:14;21.50;72.90
79760;DHT22;70512;42.122;24.732;2023-06-14T04:48:42;21.60;72.00
79760;DHT22;70512;42.122;24.732;2023-06-14T04:51:09;21.70;71.80
79760;DHT22;70512;42.122;24.732;2023-06-14T04:53:37;21.70;71.70
79760;DHT22;70512;42.122;24.732;2023-06-14T04:56:04;21.80;71.40
79760;DHT22;70512;42.122;24.732;2023-06-14T04:58:32;21.80;71.10
79760;DHT22;70512;42.122;24.732;2023-06-14T05:01:00;21.80;71.20
79760;DHT22;70512;42.122;24.732;2023-06-14T05:03:28;21.90;71.40
79760;DHT22;70512;42.122;24.732;2023-06-14T05:05:57;22.00;70.80
79760;DHT22;70512;42.122;24.732;2023-06-14T05:08:24;22.20;70.00
79760;DHT22;70512;42.122;24.732;2023-06-14T05:10:52;22.20;69.80
79760;DHT22;70512;42.122;24.732;2023-06-14T05:13:20;22.20;70.30
79760;DHT22;70512;42.122;24.732;2023-06-14T05:15:49;22.20;70.20
79760;DHT22;70512;42.122;24.732;2023-06-14T05:18:16;22.20;70.00
79760;DHT22;70512;42.122;24.732;2023-06-14T05:20:44;22.10;70.20
79760;DHT22;70512;42.122;24.732;2023-06-14T05:23:12;22.10;70.10
79760;DHT22;70512;42.122;24.732;2023-06-14T05:25:44;22.00;70.70
79760;DHT22;70512;42.122;24.732;2023-06-14T05:28:12;22.00;70.50
79760;DHT22;70512;42.122;24.732;2023-06-14T05:30:40;22.10;70.30
79760;DHT22;70512;42.122;24.732;2023-06-14T05:33:07;22.10;70.40
79760;DHT22;70512;42.122;24.732;2023-06-14T05:35:35;22.10;70.40
79760;DHT22;70512;42.122;24.732;2023-06-14T05:38:04;22.10;70.40
79760;DHT22;70512;42.122;24.732;2023-06-14T05:40:33;22.10;70.30
79760;DHT22;70512;42.122;24.732;2023-06-14T05:43:01;22.20;70.30
79760;DHT22;70512;42.122;24.732;2023-06-14T05:45:29;22.30;70.00
79760;DHT22;70512;42.122;24.732;2023-06-14T05:47:56;21.90;70.70
79760;DHT22;70512;42.122;24.732;2023-06-14T05:50:24;22.00;70.70
79760;DHT22;70512;42.122;24.732;2023-06-14T05:52:52;22.10;70.20
79760;DHT22;70512;42.122;24.732;2023-06-14T05:55:20;22.10;70.00
79760;DHT22;70512;42.122;24.732;2023-06-14T05:57:48;22.00;70.40
79760;DHT22;70512;42.122;24.732;2023-06-14T06:00:17;21.90;71.20
79760;DHT22;70512;42.122;24.732;2023-06-14T06:02:46;21.80;71.80
79760;DHT22;70512;42.122;24.732;2023-06-14T06:05:14;21.70;72.10
79760;DHT22;70512;42.122;24.732;2023-06-14T06:07:45;21.80;71.90
79760;DHT22;70512;42.122;24.732;2023-06-14T06:10:12;21.70;71.70
79760;DHT22;70512;42.122;24.732;2023-06-14T06:12:41;21.70;71.80
79760;DHT22;70512;42.122;24.732;2023-06-14T06:15:10;21.60;72.60
79760;DHT22;70512;42.122;24.732;2023-06-14T06:17:41;21.70;72.20
79760;DHT22;70512;42.122;24.732;2023-06-14T06:20:09;21.60;72.40
79760;DHT22;70512;42.122;24.732;2023-06-14T06:22:43;21.70;72.20
79760;DHT22;70512;42.122;24.732;2023-06-14T06:25:08;21.70;72.50
79760;DHT22;70512;42.122;24.732;2023-06-14T06:27:35;21.70;72.70
79760;DHT22;70512;42.122;24.732;2023-06-14T06:30:04;21.80;72.50
79760;DHT22;70512;42.122;24.732;2023-06-14T06:32:32;21.80;72.00
79760;DHT22;70512;42.122;24.732;2023-06-14T06:35:00;21.90;71.80
79760;DHT22;70512;42.122;24.732;2023-06-14T06:37:27;21.80;71.60
79760;DHT22;70512;42.122;24.732;2023-06-14T06:39:55;21.80;72.20
79760;DHT22;70512;42.122;24.732;2023-06-14T06:42:23;22.00;71.20
79760;DHT22;70512;42.122;24.732;2023-06-14T06:44:51;22.30;70.00
79760;DHT22;70512;42.122;24.732;2023-06-14T06:47:18;22.50;69.10
79760;DHT22;70512;42.122;24.732;2023-06-14T06:49:46;22.60;68.10
79760;DHT22;70512;42.122;24.732;2023-06-14T06:52:14;22.70;68.60
79760;DHT22;70512;42.122;24.732;2023-06-14T06:54:42;22.90;68.10
79760;DHT22;70512;42.122;24.732;2023-06-14T06:57:09;23.10;65.50
79760;DHT22;70512;42.122;24.732;2023-06-14T06:59:37;23.20;65.20
79760;DHT22;70512;42.122;24.732;2023-06-14T07:02:06;23.50;64.60
79760;DHT22;70512;42.122;24.732;2023-06-14T07:04:34;23.50;64.90
79760;DHT22;70512;42.122;24.732;2023-06-14T07:07:02;24.00;63.40
79760;DHT22;70512;42.122;24.732;2023-06-14T07:09:31;24.30;61.00
79760;DHT22;70512;42.122;24.732;2023-06-14T07:11:59;24.70;60.20
79760;DHT22;70512;42.122;24.732;2023-06-14T07:14:27;25.10;58.70
79760;DHT22;70512;42.122;24.732;2023-06-14T07:16:55;25.20;58.00
79760;DHT22;70512;42.122;24.732;2023-06-14T07:19:23;25.40;57.90
79760;DHT22;70512;42.122;24.732;2023-06-14T07:21:50;25.70;57.30
79760;DHT22;70512;42.122;24.732;2023-06-14T07:24:19;25.70;56.30
79760;DHT22;70512;42.122;24.732;2023-06-14T07:26:47;25.40;56.60
79760;DHT22;70512;42.122;24.732;2023-06-14T07:29:15;25.70;56.60
79760;DHT22;70512;42.122;24.732;2023-06-14T07:31:43;25.80;55.90
79760;DHT22;70512;42.122;24.732;2023-06-14T07:34:10;26.20;55.10
79760;DHT22;70512;42.122;24.732;2023-06-14T07:36:38;26.60;53.50
79760;DHT22;70512;42.122;24.732;2023-06-14T07:39:06;26.90;53.60
79760;DHT22;70512;42.122;24.732;2023-06-14T07:41:34;26.80;54.00
79760;DHT22;70512;42.122;24.732;2023-06-14T07:44:01;26.70;54.30
79760;DHT22;70512;42.122;24.732;2023-06-14T07:46:29;26.80;54.90
79760;DHT22;70512;42.122;24.732;2023-06-14T07:48:56;27.20;54.30
79760;DHT22;70512;42.122;24.732;2023-06-14T07:51:24;27.50;53.50
79760;DHT22;70512;42.122;24.732;2023-06-14T07:53:51;27.30;53.00
79760;DHT22;70512;42.122;24.732;2023-06-14T07:56:19;27.20;53.70
79760;DHT22;70512;42.122;24.732;2023-06-14T07:58:47;27.20;53.30
79760;DHT22;70512;42.122;24.732;2023-06-14T08:01:14;27.10;53.60
79760;DHT22;70512;42.122;24.732;2023-06-14T08:03:43;27.20;53.20
79760;DHT22;70512;42.122;24.732;2023-06-14T08:06:11;27.40;52.40
79760;DHT22;70512;42.122;24.732;2023-06-14T08:08:39;27.40;52.40
79760;DHT22;70512;42.122;24.732;2023-06-14T08:11:06;27.50;51.90
79760;DHT22;70512;42.122;24.732;2023-06-14T08:13:34;27.70;51.70
79760;DHT22;70512;42.122;24.732;2023-06-14T08:16:02;28.00;50.60
79760;DHT22;70512;42.122;24.732;2023-06-14T08:18:31;27.80;50.50
79760;DHT22;70512;42.122;24.732;2023-06-14T08:20:59;28.10;49.80
79760;DHT22;70512;42.122;24.732;2023-06-14T08:23:26;28.00;49.60
79760;DHT22;70512;42.122;24.732;2023-06-14T08:25:54;27.70;50.20
79760;DHT22;70512;42.122;24.732;2023-06-14T08:28:24;27.90;50.40
79760;DHT22;70512;42.122;24.732;2023-06-14T08:30:51;27.60;50.20
79760;DHT22;70512;42.122;24.732;2023-06-14T08:33:19;28.10;50.00
79760;DHT22;70512;42.122;24.732;2023-06-14T08:35:46;28.30;49.10
79760;DHT22;70512;42.122;24.732;2023-06-14T08:38:15;28.30;48.50
79760;DHT22;70512;42.122;24.732;2023-06-14T08:40:44;28.80;47.50
79760;DHT22;70512;42.122;24.732;2023-06-14T08:43:12;29.30;47.00
79760;DHT22;70512;42.122;24.732;2023-06-14T08:45:39;29.30;46.60
79760;DHT22;70512;42.122;24.732;2023-06-14T08:48:08;29.70;46.20
79760;DHT22;70512;42.122;24.732;2023-06-14T08:50:36;29.70;45.90
79760;DHT22;70512;42.122;24.732;2023-06-14T08:53:07;29.80;45.30
79760;DHT22;70512;42.122;24.732;2023-06-14T08:55:37;29.70;46.00
79760;DHT22;70512;42.122;24.732;2023-06-14T08:58:06;29.50;45.80
79760;DHT22;70512;42.122;24.732;2023-06-14T09:00:35;29.60;45.80
79760;DHT22;70512;42.122;24.732;2023-06-14T09:03:05;29.80;44.80
79760;DHT22;70512;42.122;24.732;2023-06-14T09:05:37;29.50;45.10
79760;DHT22;70512;42.122;24.732;2023-06-14T09:08:04;29.10;45.70
79760;DHT22;70512;42.122;24.732;2023-06-14T09:10:33;29.40;46.00
79760;DHT22;70512;42.122;24.732;2023-06-14T09:13:02;30.00;44.60
79760;DHT22;70512;42.122;24.732;2023-06-14T09:15:31;30.40;43.30
79760;DHT22;70512;42.122;24.732;2023-06-14T09:18:03;30.50;42.80
79760;DHT22;70512;42.122;24.732;2023-06-14T09:20:32;30.50;42.60
79760;DHT22;70512;42.122;24.732;2023-06-14T09:23:00;30.30;43.10
79760;DHT22;70512;42.122;24.732;2023-06-14T09:25:28;29.90;43.10
79760;DHT22;70512;42.122;24.732;2023-06-14T09:27:56;29.60;43.50
79760;DHT22;70512;42.122;24.732;2023-06-14T09:30:23;29.70;44.10
79760;DHT22;70512;42.122;24.732;2023-06-14T09:32:51;29.10;44.40
79760;DHT22;70512;42.122;24.732;2023-06-14T09:35:19;29.40;45.10
79760;DHT22;70512;42.122;24.732;2023-06-14T09:37:47;29.80;44.90
79760;DHT22;70512;42.122;24.732;2023-06-14T09:40:23;30.20;43.90
79760;DHT22;70512;42.122;24.732;2023-06-14T09:42:51;30.00;43.90
79760;DHT22;70512;42.122;24.732;2023-06-14T09:45:20;29.80;43.20
79760;DHT22;70512;42.122;24.732;2023-06-14T09:47:51;29.90;43.70
79760;DHT22;70512;42.122;24.732;2023-06-14T09:50:19;30.30;43.00
79760;DHT22;70512;42.122;24.732;2023-06-14T09:52:48;30.50;42.30
79760;DHT22;70512;42.122;24.732;2023-06-14T09:55:18;30.60;41.80
79760;DHT22;70512;42.122;24.732;2023-06-14T09:57:48;30.70;41.80
79760;DHT22;70512;42.122;24.732;2023-06-14T10:00:19;30.50;41.50
79760;DHT22;70512;42.122;24.732;2023-06-14T10:02:49;30.60;41.90
79760;DHT22;70512;42.122;24.732;2023-06-14T10:05:19;30.60;41.90
79760;DHT22;70512;42.122;24.732;2023-06-14T10:08:14;30.60;42.10
79760;DHT22;70512;42.122;24.732;2023-06-14T10:10:21;30.50;42.40
79760;DHT22;70512;42.122;24.732;2023-06-14T10:12:49;30.50;43.80
79760;DHT22;70512;42.122;24.732;2023-06-14T10:15:32;30.60;43.40
79760;DHT22;70512;42.122;24.732;2023-06-14T10:18:08;30.80;45.10
79760;DHT22;70512;42.122;24.732;2023-06-14T10:23:18;31.30;44.40
79760;DHT22;70512;42.122;24.732;2023-06-14T10:25:39;31.60;43.20
79760;DHT22;70512;42.122;24.732;2023-06-14T10:28:18;31.70;42.30
79760;DHT22;70512;42.122;24.732;2023-06-14T10:31:08;31.90;41.40
79760;DHT22;70512;42.122;24.732;2023-06-14T10:33:47;31.90;40.60
79760;DHT22;70512;42.122;24.732;2023-06-14T10:36:10;31.90;40.30
79760;DHT22;70512;42.122;24.732;2023-06-14T10:38:38;32.10;40.20
79760;DHT22;70512;42.122;24.732;2023-06-14T10:41:07;32.20;39.50
79760;DHT22;70512;42.122;24.732;2023-06-14T10:43:34;32.00;39.50
79760;DHT22;70512;42.122;24.732;2023-06-14T10:48:44;32.40;39.70
79760;DHT22;70512;42.122;24.732;2023-06-14T10:51:19;32.70;38.50
79760;DHT22;70512;42.122;24.732;2023-06-14T10:53:48;32.70;39.50
79760;DHT22;70512;42.122;24.732;2023-06-14T10:56:30;32.90;39.80
79760;DHT22;70512;42.122;24.732;2023-06-14T10:58:58;33.00;39.50
79760;DHT22;70512;42.122;24.732;2023-06-14T11:01:37;33.20;39.10
79760;DHT22;70512;42.122;24.732;2023-06-14T11:04:07;33.40;38.10
79760;DHT22;70512;42.122;24.732;2023-06-14T11:06:47;33.50;37.90
79760;DHT22;70512;42.122;24.732;2023-06-14T11:10:35;33.60;37.40
79760;DHT22;70512;42.122;24.732;2023-06-14T11:12:12;33.60;35.60
79760;DHT22;70512;42.122;24.732;2023-06-14T11:14:40;33.60;35.30
79760;DHT22;70512;42.122;24.732;2023-06-14T11:17:08;33.60;35.60
79760;DHT22;70512;42.122;24.732;2023-06-14T11:19:35;33.70;36.30
79760;DHT22;70512;42.122;24.732;2023-06-14T11:22:03;34.20;35.80
79760;DHT22;70512;42.122;24.732;2023-06-14T11:24:32;35.00;35.30
79760;DHT22;70512;42.122;24.732;2023-06-14T11:27:00;36.30;31.30
79760;DHT22;70512;42.122;24.732;2023-06-14T11:29:29;37.00;30.40
79760;DHT22;70512;42.122;24.732;2023-06-14T11:31:57;38.20;29.60
79760;DHT22;70512;42.122;24.732;2023-06-14T11:34:25;39.50;28.80
79760;DHT22;70512;42.122;24.732;2023-06-14T11:36:52;41.00;27.30
79760;DHT22;70512;42.122;24.732;2023-06-14T11:39:24;42.50;25.90
79760;DHT22;70512;42.122;24.732;2023-06-14T11:41:51;43.60;23.60
79760;DHT22;70512;42.122;24.732;2023-06-14T11:44:18;42.00;24.70
79760;DHT22;70512;42.122;24.732;2023-06-14T11:46:46;43.50;24.00
79760;DHT22;70512;42.122;24.732;2023-06-14T11:49:13;44.60;22.50
79760;DHT22;70512;42.122;24.732;2023-06-14T11:51:43;45.60;21.70
79760;DHT22;70512;42.122;24.732;2023-06-14T11:54:11;46.60;21.40
79760;DHT22;70512;42.122;24.732;2023-06-14T11:56:39;47.50;21.10
79760;DHT22;70512;42.122;24.732;2023-06-14T11:59:07;46.40;20.90
79760;DHT22;70512;42.122;24.732;2023-06-14T12:01:36;47.30;21.10
79760;DHT22;70512;42.122;24.732;2023-06-14T12:04:07;47.90;20.40
79760;DHT22;70512;42.122;24.732;2023-06-14T12:06:35;48.30;19.50
79760;DHT22;70512;42.122;24.732;2023-06-14T12:09:05;48.90;19.50
79760;DHT22;70512;42.122;24.732;2023-06-14T12:11:35;49.00;18.90
79760;DHT22;70512;42.122;24.732;2023-06-14T12:14:07;48.20;18.90
79760;DHT22;70512;42.122;24.732;2023-06-14T12:16:38;48.50;19.40
79760;DHT22;70512;42.122;24.732;2023-06-14T12:19:14;48.10;19.00
79760;DHT22;70512;42.122;24.732;2023-06-14T12:21:43;47.90;19.60
79760;DHT22;70512;42.122;24.732;2023-06-14T12:24:12;48.30;19.40
79760;DHT22;70512;42.122;24.732;2023-06-14T12:26:41;47.90;19.20
79760;DHT22;70512;42.122;24.732;2023-06-14T12:29:08;47.50;19.60
79760;DHT22;70512;42.122;24.732;2023-06-14T12:31:38;47.70;19.10
79760;DHT22;70512;42.122;24.732;2023-06-14T12:34:07;47.80;19.30
79760;DHT22;70512;42.122;24.732;2023-06-14T12:36:35;48.00;19.20
79760;DHT22;70512;42.122;24.732;2023-06-14T12:39:03;47.40;19.90
79760;DHT22;70512;42.122;24.732;2023-06-14T12:41:31;46.80;19.50
79760;DHT22;70512;42.122;24.732;2023-06-14T12:43:59;47.00;20.00
79760;DHT22;70512;42.122;24.732;2023-06-14T12:46:28;47.40;19.10
79760;DHT22;70512;42.122;24.732;2023-06-14T12:48:55;47.90;19.10
79760;DHT22;70512;42.122;24.732;2023-06-14T12:51:23;47.60;19.70
79760;DHT22;70512;42.122;24.732;2023-06-14T12:53:52;48.10;18.80
79760;DHT22;70512;42.122;24.732;2023-06-14T12:56:19;48.50;18.60
79760;DHT22;70512;42.122;24.732;2023-06-14T12:58:47;49.20;18.40
79760;DHT22;70512;42.122;24.732;2023-06-14T13:01:15;50.10;17.50
79760;DHT22;70512;42.122;24.732;2023-06-14T13:03:42;50.70;17.30
79760;DHT22;70512;42.122;24.732;2023-06-14T13:06:10;50.60;16.80
79760;DHT22;70512;42.122;24.732;2023-06-14T13:08:38;50.70;17.20
79760;DHT22;70512;42.122;24.732;2023-06-14T13:11:05;50.90;17.10
79760;DHT22;70512;42.122;24.732;2023-06-14T13:13:33;51.40;17.00
79760;DHT22;70512;42.122;24.732;2023-06-14T13:16:00;52.10;16.00
79760;DHT22;70512;42.122;24.732;2023-06-14T13:18:28;51.70;15.90
79760;DHT22;70512;42.122;24.732;2023-06-14T13:20:55;51.20;16.30
79760;DHT22;70512;42.122;24.732;2023-06-14T13:23:23;49.60;17.40
79760;DHT22;70512;42.122;24.732;2023-06-14T13:25:51;48.30;18.20
79760;DHT22;70512;42.122;24.732;2023-06-14T13:28:19;47.30;18.50
79760;DHT22;70512;42.122;24.732;2023-06-14T13:30:47;46.40;19.90
79760;DHT22;70512;42.122;24.732;2023-06-14T13:33:15;45.30;20.70
79760;DHT22;70512;42.122;24.732;2023-06-14T13:35:42;44.60;22.00
79760;DHT22;70512;42.122;24.732;2023-06-14T13:38:10;43.20;23.50
79760;DHT22;70512;42.122;24.732;2023-06-14T13:40:38;43.20;23.40
79760;DHT22;70512;42.122;24.732;2023-06-14T13:43:06;43.20;23.20
79760;DHT22;70512;42.122;24.732;2023-06-14T13:45:34;43.50;23.00
79760;DHT22;70512;42.122;24.732;2023-06-14T13:48:01;43.70;22.50
79760;DHT22;70512;42.122;24.732;2023-06-14T13:50:29;43.20;22.60
79760;DHT22;70512;42.122;24.732;2023-06-14T13:52:57;42.80;23.30
79760;DHT22;70512;42.122;24.732;2023-06-14T13:55:24;42.80;23.80
79760;DHT22;70512;42.122;24.732;2023-06-14T13:57:52;42.30;23.30
79760;DHT22;70512;42.122;24.732;2023-06-14T14:00:20;41.90;23.90
79760;DHT22;70512;42.122;24.732;2023-06-14T14:02:48;41.70;24.20
79760;DHT22;70512;42.122;24.732;2023-06-14T14:05:17;41.40;24.50
79760;DHT22;70512;42.122;24.732;2023-06-14T14:07:45;41.80;24.10
79760;DHT22;70512;42.122;24.732;2023-06-14T14:10:13;42.30;23.50
79760;DHT22;70512;42.122;24.732;2023-06-14T14:12:41;43.10;22.30
79760;DHT22;70512;42.122;24.732;2023-06-14T14:15:09;44.30;21.40
79760;DHT22;70512;42.122;24.732;2023-06-14T14:17:38;45.30;20.30
79760;DHT22;70512;42.122;24.732;2023-06-14T14:20:07;46.50;19.90
79760;DHT22;70512;42.122;24.732;2023-06-14T14:22:34;47.20;19.50
79760;DHT22;70512;42.122;24.732;2023-06-14T14:25:02;48.10;18.90
79760;DHT22;70512;42.122;24.732;2023-06-14T14:27:29;48.30;18.70
79760;DHT22;70512;42.122;24.732;2023-06-14T14:29:57;48.10;18.70
79760;DHT22;70512;42.122;24.732;2023-06-14T14:32:25;46.90;18.60
79760;DHT22;70512;42.122;24.732;2023-06-14T14:34:52;45.00;20.10
79760;DHT22;70512;42.122;24.732;2023-06-14T14:37:20;43.80;21.40
79760;DHT22;70512;42.122;24.732;2023-06-14T14:39:47;43.30;22.10
79760;DHT22;70512;42.122;24.732;2023-06-14T14:42:15;43.80;21.70
79760;DHT22;70512;42.122;24.732;2023-06-14T14:44:42;44.50;21.00
79760;DHT22;70512;42.122;24.732;2023-06-14T14:47:11;44.20;21.00
79760;DHT22;70512;42.122;24.732;2023-06-14T14:49:38;43.10;21.90
79760;DHT22;70512;42.122;24.732;2023-06-14T14:52:09;42.50;22.60
79760;DHT22;70512;42.122;24.732;2023-06-14T14:54:40;42.70;22.90
79760;DHT22;70512;42.122;24.732;2023-06-14T14:57:07;43.00;22.20
79760;DHT22;70512;42.122;24.732;2023-06-14T14:59:35;42.80;21.90
79760;DHT22;70512;42.122;24.732;2023-06-14T15:02:02;43.20;22.10
79760;DHT22;70512;42.122;24.732;2023-06-14T15:04:30;43.60;22.50
79760;DHT22;70512;42.122;24.732;2023-06-14T15:06:58;43.90;21.40
79760;DHT22;70512;42.122;24.732;2023-06-14T15:09:25;44.10;21.30
79760;DHT22;70512;42.122;24.732;2023-06-14T15:11:53;43.60;21.80
79760;DHT22;70512;42.122;24.732;2023-06-14T15:14:21;43.10;22.00
79760;DHT22;70512;42.122;24.732;2023-06-14T15:16:48;42.80;22.70
79760;DHT22;70512;42.122;24.732;2023-06-14T15:19:18;42.60;22.80
79760;DHT22;70512;42.122;24.732;2023-06-14T15:21:45;42.60;22.80
79760;DHT22;70512;42.122;24.732;2023-06-14T15:24:13;42.00;22.20
79760;DHT22;70512;42.122;24.732;2023-06-14T15:26:49;41.40;23.80
79760;DHT22;70512;42.122;24.732;2023-06-14T15:29:20;40.40;24.50